sensor_id;sensor_type;location;lat;lon;timestamp;noise_LAeq;noise_LA_min;noise_LA_max;noise_LA01;noise_LA95
80580;Laerm;69939;52.402;6.608;2023-08-06T00:01:15;57.64;34.99;74.21;;
80580;Laerm;69939;52.402;6.608;2023-08-06T00:03:49;49.35;33.41;66.60;;
80580;Laerm;69939;52.402;6.608;2023-08-06T00:06:18;55.37;34.37;72.73;;
80580;Laerm;69939;52.402;6.608;2023-08-06T00:08:47;42.78;33.38;60.29;;
80580;Laerm;69939;52.402;6.608;2023-08-06T00:11:17;56.79;33.28;72.65;;
80580;Laerm;69939;52.402;6.608;2023-08-06T00:13:46;57.43;36.83;70.33;;
80580;Laerm;69939;52.402;6.608;2023-08-06T00:16:15;45.97;33.76;65.79;;
80580;Laerm;69939;52.402;6.608;2023-08-06T00:18:44;58.11;32.93;73.62;;
80580;Laerm;69939;52.402;6.608;2023-08-06T00:21:16;49.74;32.74;70.47;;
80580;Laerm;69939;52.402;6.608;2023-08-06T00:23:45;54.87;32.97;71.09;;
80580;Laerm;69939;52.402;6.608;2023-08-06T00:26:16;48.78;32.66;64.63;;
80580;Laerm;69939;52.402;6.608;2023-08-06T00:28:47;51.48;33.85;68.03;;
80580;Laerm;69939;52.402;6.608;2023-08-06T00:31:18;41.76;33.17;61.06;;
80580;Laerm;69939;52.402;6.608;2023-08-06T00:33:47;51.72;33.99;67.71;;
80580;Laerm;69939;52.402;6.608;2023-08-06T00:36:19;54.87;34.33;68.55;;
80580;Laerm;69939;52.402;6.608;2023-08-06T00:38:48;56.90;35.19;69.59;;
80580;Laerm;69939;52.402;6.608;2023-08-06T00:41:17;53.17;32.91;67.59;;
80580;Laerm;69939;52.402;6.608;2023-08-06T00:43:46;39.79;32.80;58.53;;
80580;Laerm;69939;52.402;6.608;2023-08-06T00:46:16;50.16;32.17;66.33;;
80580;Laerm;69939;52.402;6.608;2023-08-06T00:48:46;49.60;33.81;65.08;;
80580;Laerm;69939;52.402;6.608;2023-08-06T00:51:18;53.44;32.22;71.92;;
80580;Laerm;69939;52.402;6.608;2023-08-06T00:53:49;55.75;32.69;73.22;;
80580;Laerm;69939;52.402;6.608;2023-08-06T00:56:19;57.00;34.22;71.73;;
80580;Laerm;69939;52.402;6.608;2023-08-06T00:58:48;41.99;32.88;57.78;;
80580;Laerm;69939;52.402;6.608;2023-08-06T01:01:18;50.16;32.59;66.80;;
80580;Laerm;69939;52.402;6.608;2023-08-06T01:03:47;54.54;33.90;71.72;;
80580;Laerm;69939;52.402;6.608;2023-08-06T01:06:29;46.07;32.76;69.64;;
80580;Laerm;69939;52.402;6.608;2023-08-06T01:09:27;56.93;33.46;74.94;;
80580;Laerm;69939;52.402;6.608;2023-08-06T01:12:12;53.53;33.32;70.48;;
80580;Laerm;69939;52.402;6.608;2023-08-06T01:15:00;46.48;32.80;63.28;;
80580;Laerm;69939;52.402;6.608;2023-08-06T01:17:32;52.19;32.99;70.21;;
80580;Laerm;69939;52.402;6.608;2023-08-06T01:20:04;41.94;32.42;61.01;;
80580;Laerm;69939;52.402;6.608;2023-08-06T01:22:36;41.43;32.83;59.97;;
80580;Laerm;69939;52.402;6.608;2023-08-06T01:25:08;41.79;32.74;60.58;;
80580;Laerm;69939;52.402;6.608;2023-08-06T01:27:46;41.70;33.10;59.60;;
80580;Laerm;69939;52.402;6.608;2023-08-06T01:30:25;51.83;33.37;68.75;;
80580;Laerm;69939;52.402;6.608;2023-08-06T01:32:59;55.63;34.21;71.95;;
80580;Laerm;69939;52.402;6.608;2023-08-06T01:35:33;54.41;34.31;68.43;;
80580;Laerm;69939;52.402;6.608;2023-08-06T01:38:05;54.38;33.82;76.13;;
80580;Laerm;69939;52.402;6.608;2023-08-06T01:40:34;61.24;33.78;77.93;;
80580;Laerm;69939;52.402;6.608;2023-08-06T01:43:04;53.52;33.96;68.70;;
80580;Laerm;69939;52.402;6.608;2023-08-06T01:45:33;47.60;33.10;68.52;;
80580;Laerm;69939;52.402;6.608;2023-08-06T01:48:03;51.66;33.56;67.65;;
80580;Laerm;69939;52.402;6.608;2023-08-06T01:50:33;53.55;32.93;69.62;;
80580;Laerm;69939;52.402;6.608;2023-08-06T01:53:05;55.32;32.74;73.10;;
80580;Laerm;69939;52.402;6.608;2023-08-06T01:55:34;55.67;33.09;73.77;;
80580;Laerm;69939;52.402;6.608;2023-08-06T01:58:04;55.12;33.45;70.97;;
80580;Laerm;69939;52.402;6.608;2023-08-06T02:00:33;42.26;33.11;61.04;;
80580;Laerm;69939;52.402;6.608;2023-08-06T02:03:02;48.68;33.38;64.21;;
80580;Laerm;69939;52.402;6.608;2023-08-06T02:05:32;54.46;33.64;67.65;;
80580;Laerm;69939;52.402;6.608;2023-08-06T02:08:01;42.52;32.88;61.02;;
80580;Laerm;69939;52.402;6.608;2023-08-06T02:10:33;56.69;33.54;71.86;;
80580;Laerm;69939;52.402;6.608;2023-08-06T02:13:02;52.99;33.70;72.17;;
80580;Laerm;69939;52.402;6.608;2023-08-06T02:15:33;55.30;33.69;68.79;;
80580;Laerm;69939;52.402;6.608;2023-08-06T02:18:02;57.55;32.51;73.58;;
80580;Laerm;69939;52.402;6.608;2023-08-06T02:20:31;42.63;32.44;59.76;;
80580;Laerm;69939;52.402;6.608;2023-08-06T02:23:01;57.72;32.74;74.96;;
80580;Laerm;69939;52.402;6.608;2023-08-06T02:25:33;45.02;33.59;63.56;;
80580;Laerm;69939;52.402;6.608;2023-08-06T02:28:02;52.22;33.04;67.11;;
80580;Laerm;69939;52.402;6.608;2023-08-06T02:30:32;57.37;34.13;71.40;;
80580;Laerm;69939;52.402;6.608;2023-08-06T02:33:06;51.94;33.22;69.67;;
80580;Laerm;69939;52.402;6.608;2023-08-06T02:35:37;41.21;31.81;60.97;;
80580;Laerm;69939;52.402;6.608;2023-08-06T02:38:06;41.32;32.08;60.24;;
80580;Laerm;69939;52.402;6.608;2023-08-06T02:40:43;51.83;32.67;65.75;;
80580;Laerm;69939;52.402;6.608;2023-08-06T02:43:15;54.88;33.15;70.88;;
80580;Laerm;69939;52.402;6.608;2023-08-06T02:45:44;50.96;33.18;67.72;;
80580;Laerm;69939;52.402;6.608;2023-08-06T02:48:14;41.05;32.85;57.90;;
80580;Laerm;69939;52.402;6.608;2023-08-06T02:50:43;56.58;32.75;74.83;;
80580;Laerm;69939;52.402;6.608;2023-08-06T02:53:13;51.75;34.03;67.56;;
80580;Laerm;69939;52.402;6.608;2023-08-06T02:55:48;52.44;32.70;67.04;;
80580;Laerm;69939;52.402;6.608;2023-08-06T02:58:17;59.66;32.87;78.73;;
80580;Laerm;69939;52.402;6.608;2023-08-06T03:01:03;41.05;32.19;61.02;;
80580;Laerm;69939;52.402;6.608;2023-08-06T03:03:34;52.67;32.21;69.50;;
80580;Laerm;69939;52.402;6.608;2023-08-06T03:06:04;56.50;32.98;68.40;;
80580;Laerm;69939;52.402;6.608;2023-08-06T03:08:33;41.54;32.41;60.49;;
80580;Laerm;69939;52.402;6.608;2023-08-06T03:11:05;41.35;32.69;59.54;;
80580;Laerm;69939;52.402;6.608;2023-08-06T03:13:35;54.32;33.61;71.62;;
80580;Laerm;69939;52.402;6.608;2023-08-06T03:16:04;42.18;32.54;59.06;;
80580;Laerm;69939;52.402;6.608;2023-08-06T03:18:34;53.03;32.88;69.38;;
80580;Laerm;69939;52.402;6.608;2023-08-06T03:21:04;41.40;33.11;57.78;;
80580;Laerm;69939;52.402;6.608;2023-08-06T03:23:33;44.01;35.01;59.90;;
80580;Laerm;69939;52.402;6.608;2023-08-06T03:26:06;46.59;40.82;63.24;;
80580;Laerm;69939;52.402;6.608;2023-08-06T03:28:35;58.67;39.80;76.32;;
80580;Laerm;69939;52.402;6.608;2023-08-06T03:31:05;44.77;38.53;59.96;;
80580;Laerm;69939;52.402;6.608;2023-08-06T03:33:35;45.33;37.98;62.95;;
80580;Laerm;69939;52.402;6.608;2023-08-06T03:36:04;52.75;39.14;69.42;;
80580;Laerm;69939;52.402;6.608;2023-08-06T03:38:34;53.35;36.37;69.92;;
80580;Laerm;69939;52.402;6.608;2023-08-06T03:41:08;52.53;34.99;70.32;;
80580;Laerm;69939;52.402;6.608;2023-08-06T03:43:37;51.75;33.93;67.36;;
80580;Laerm;69939;52.402;6.608;2023-08-06T03:46:06;43.16;34.55;60.48;;
80580;Laerm;69939;52.402;6.608;2023-08-06T03:48:36;41.30;32.86;60.18;;
80580;Laerm;69939;52.402;6.608;2023-08-06T03:51:05;42.11;33.00;57.92;;
80580;Laerm;69939;52.402;6.608;2023-08-06T03:53:34;54.49;33.50;72.33;;
80580;Laerm;69939;52.402;6.608;2023-08-06T03:56:07;50.26;33.47;65.84;;
80580;Laerm;69939;52.402;6.608;2023-08-06T03:58:37;52.66;33.23;69.90;;
80580;Laerm;69939;52.402;6.608;2023-08-06T04:01:06;50.18;33.43;65.46;;
80580;Laerm;69939;52.402;6.608;2023-08-06T04:03:35;37.65;33.28;56.65;;
80580;Laerm;69939;52.402;6.608;2023-08-06T04:06:04;58.53;33.02;72.27;;
80580;Laerm;69939;52.402;6.608;2023-08-06T04:08:34;56.30;33.77;73.99;;
80580;Laerm;69939;52.402;6.608;2023-08-06T04:11:06;52.14;33.29;68.14;;
80580;Laerm;69939;52.402;6.608;2023-08-06T04:13:38;50.67;33.17;66.73;;
80580;Laerm;69939;52.402;6.608;2023-08-06T04:16:07;56.14;33.82;70.56;;
80580;Laerm;69939;52.402;6.608;2023-08-06T04:18:36;58.93;33.45;74.85;;
80580;Laerm;69939;52.402;6.608;2023-08-06T04:21:06;42.76;32.91;58.72;;
80580;Laerm;69939;52.402;6.608;2023-08-06T04:23:36;50.79;32.92;66.60;;
80580;Laerm;69939;52.402;6.608;2023-08-06T04:26:10;56.24;33.40;72.40;;
80580;Laerm;69939;52.402;6.608;2023-08-06T04:28:39;58.17;34.94;72.37;;
80580;Laerm;69939;52.402;6.608;2023-08-06T04:31:08;57.85;34.39;75.04;;
80580;Laerm;69939;52.402;6.608;2023-08-06T04:33:37;57.76;34.05;70.72;;
80580;Laerm;69939;52.402;6.608;2023-08-06T04:36:06;56.59;35.07;70.68;;
80580;Laerm;69939;52.402;6.608;2023-08-06T04:38:36;54.68;33.64;68.49;;
80580;Laerm;69939;52.402;6.608;2023-08-06T04:41:09;63.94;42.65;77.04;;
80580;Laerm;69939;52.402;6.608;2023-08-06T04:43:38;50.65;33.81;66.45;;
80580;Laerm;69939;52.402;6.608;2023-08-06T04:46:07;61.24;37.38;72.99;;
80580;Laerm;69939;52.402;6.608;2023-08-06T04:48:36;58.17;33.71;72.87;;
80580;Laerm;69939;52.402;6.608;2023-08-06T04:51:05;55.68;33.85;72.28;;
80580;Laerm;69939;52.402;6.608;2023-08-06T04:53:35;51.79;32.64;68.22;;
80580;Laerm;69939;52.402;6.608;2023-08-06T04:56:04;59.25;32.21;74.53;;
80580;Laerm;69939;52.402;6.608;2023-08-06T04:58:36;54.98;33.24;71.78;;
80580;Laerm;69939;52.402;6.608;2023-08-06T05:01:05;55.44;34.77;71.58;;
80580;Laerm;69939;52.402;6.608;2023-08-06T05:03:34;53.19;33.05;69.89;;
80580;Laerm;69939;52.402;6.608;2023-08-06T05:06:03;56.99;32.57;73.46;;
80580;Laerm;69939;52.402;6.608;2023-08-06T05:08:32;62.63;33.23;81.91;;
80580;Laerm;69939;52.402;6.608;2023-08-06T05:11:02;58.24;32.51;72.43;;
80580;Laerm;69939;52.402;6.608;2023-08-06T05:13:31;55.20;32.63;70.52;;
80580;Laerm;69939;52.402;6.608;2023-08-06T05:16:03;61.22;41.01;73.44;;
80580;Laerm;69939;52.402;6.608;2023-08-06T05:18:32;55.58;32.45;72.37;;
80580;Laerm;69939;52.402;6.608;2023-08-06T05:21:03;53.19;33.03;67.96;;
80580;Laerm;69939;52.402;6.608;2023-08-06T05:23:32;53.41;32.77;70.60;;
80580;Laerm;69939;52.402;6.608;2023-08-06T05:26:01;59.38;34.28;74.78;;
80580;Laerm;69939;52.402;6.608;2023-08-06T05:28:34;44.37;32.82;60.77;;
80580;Laerm;69939;52.402;6.608;2023-08-06T05:31:06;56.84;33.27;76.37;;
80580;Laerm;69939;52.402;6.608;2023-08-06T05:33:35;58.21;33.96;70.67;;
80580;Laerm;69939;52.402;6.608;2023-08-06T05:36:04;59.86;33.27;73.06;;
80580;Laerm;69939;52.402;6.608;2023-08-06T05:38:33;56.93;34.26;72.08;;
80580;Laerm;69939;52.402;6.608;2023-08-06T05:41:03;55.85;34.08;69.72;;
80580;Laerm;69939;52.402;6.608;2023-08-06T05:43:31;54.46;33.07;70.82;;
80580;Laerm;69939;52.402;6.608;2023-08-06T05:46:01;49.19;32.34;65.48;;
80580;Laerm;69939;52.402;6.608;2023-08-06T05:48:32;36.67;32.94;48.41;;
80580;Laerm;69939;52.402;6.608;2023-08-06T05:51:01;56.43;33.17;70.54;;
80580;Laerm;69939;52.402;6.608;2023-08-06T05:53:33;67.66;36.29;89.58;;
80580;Laerm;69939;52.402;6.608;2023-08-06T05:56:04;60.14;33.82;71.33;;
80580;Laerm;69939;52.402;6.608;2023-08-06T05:58:33;57.90;33.01;72.55;;
80580;Laerm;69939;52.402;6.608;2023-08-06T06:01:02;43.68;32.37;59.50;;
80580;Laerm;69939;52.402;6.608;2023-08-06T06:03:34;43.09;33.12;59.84;;
80580;Laerm;69939;52.402;6.608;2023-08-06T06:06:03;50.70;33.35;66.39;;
80580;Laerm;69939;52.402;6.608;2023-08-06T06:08:32;42.93;31.88;59.37;;
80580;Laerm;69939;52.402;6.608;2023-08-06T06:11:01;54.54;32.02;70.77;;
80580;Laerm;69939;52.402;6.608;2023-08-06T06:13:31;58.67;34.45;73.31;;
80580;Laerm;69939;52.402;6.608;2023-08-06T06:16:02;53.02;32.10;66.08;;
80580;Laerm;69939;52.402;6.608;2023-08-06T06:18:34;43.48;31.98;60.01;;
80580;Laerm;69939;52.402;6.608;2023-08-06T06:21:04;58.52;33.49;70.82;;
80580;Laerm;69939;52.402;6.608;2023-08-06T06:23:35;53.71;33.19;68.52;;
80580;Laerm;69939;52.402;6.608;2023-08-06T06:26:04;54.70;32.75;70.58;;
80580;Laerm;69939;52.402;6.608;2023-08-06T06:28:33;55.07;32.55;70.50;;
80580;Laerm;69939;52.402;6.608;2023-08-06T06:31:03;56.30;32.48;70.22;;
80580;Laerm;69939;52.402;6.608;2023-08-06T06:33:35;62.90;35.44;81.60;;
80580;Laerm;69939;52.402;6.608;2023-08-06T06:36:06;58.32;34.59;71.89;;
80580;Laerm;69939;52.402;6.608;2023-08-06T06:38:36;57.67;34.12;72.43;;
80580;Laerm;69939;52.402;6.608;2023-08-06T06:41:05;57.29;32.58;72.87;;
80580;Laerm;69939;52.402;6.608;2023-08-06T06:43:35;54.23;31.88;69.82;;
80580;Laerm;69939;52.402;6.608;2023-08-06T06:46:05;57.19;32.39;72.91;;
80580;Laerm;69939;52.402;6.608;2023-08-06T06:48:37;59.98;36.30;72.00;;
80580;Laerm;69939;52.402;6.608;2023-08-06T06:51:06;59.61;33.56;71.22;;
80580;Laerm;69939;52.402;6.608;2023-08-06T06:53:36;57.52;32.50;71.58;;
80580;Laerm;69939;52.402;6.608;2023-08-06T06:56:05;58.23;32.03;79.85;;
80580;Laerm;69939;52.402;6.608;2023-08-06T06:58:34;56.55;32.39;70.44;;
80580;Laerm;69939;52.402;6.608;2023-08-06T07:01:04;60.19;33.45;71.16;;
80580;Laerm;69939;52.402;6.608;2023-08-06T07:03:38;61.04;35.38;77.18;;
80580;Laerm;69939;52.402;6.608;2023-08-06T07:06:07;57.13;34.76;70.75;;
80580;Laerm;69939;52.402;6.608;2023-08-06T07:08:37;58.23;34.03;71.37;;
80580;Laerm;69939;52.402;6.608;2023-08-06T07:11:07;58.00;35.62;72.38;;
80580;Laerm;69939;52.402;6.608;2023-08-06T07:13:36;59.94;37.70;73.50;;
80580;Laerm;69939;52.402;6.608;2023-08-06T07:16:05;57.88;33.37;72.28;;
80580;Laerm;69939;52.402;6.608;2023-08-06T07:18:37;60.14;36.28;71.62;;
80580;Laerm;69939;52.402;6.608;2023-08-06T07:21:06;59.43;36.91;73.79;;
80580;Laerm;69939;52.402;6.608;2023-08-06T07:23:35;59.50;33.16;74.23;;
80580;Laerm;69939;52.402;6.608;2023-08-06T07:26:04;61.64;35.17;82.41;;
80580;Laerm;69939;52.402;6.608;2023-08-06T07:28:35;58.41;35.68;74.55;;
80580;Laerm;69939;52.402;6.608;2023-08-06T07:31:04;63.35;38.85;78.45;;
80580;Laerm;69939;52.402;6.608;2023-08-06T07:33:33;58.90;35.69;73.02;;
80580;Laerm;69939;52.402;6.608;2023-08-06T07:36:12;58.93;33.88;70.32;;
80580;Laerm;69939;52.402;6.608;2023-08-06T07:38:42;60.83;36.39;73.85;;
80580;Laerm;69939;52.402;6.608;2023-08-06T07:41:11;59.63;37.24;72.91;;
80580;Laerm;69939;52.402;6.608;2023-08-06T07:43:40;60.27;36.32;71.41;;
80580;Laerm;69939;52.402;6.608;2023-08-06T07:46:10;62.83;41.46;71.91;;
80580;Laerm;69939;52.402;6.608;2023-08-06T07:48:39;58.04;36.37;70.37;;
80580;Laerm;69939;52.402;6.608;2023-08-06T07:51:11;61.05;33.50;73.28;;
80580;Laerm;69939;52.402;6.608;2023-08-06T07:53:40;56.92;36.33;68.81;;
80580;Laerm;69939;52.402;6.608;2023-08-06T07:56:09;61.43;38.14;72.68;;
80580;Laerm;69939;52.402;6.608;2023-08-06T07:58:38;60.38;34.19;73.54;;
80580;Laerm;69939;52.402;6.608;2023-08-06T08:01:07;57.02;34.84;71.74;;
80580;Laerm;69939;52.402;6.608;2023-08-06T08:03:37;59.01;32.96;72.75;;
80580;Laerm;69939;52.402;6.608;2023-08-06T08:06:06;59.96;37.62;71.44;;
80580;Laerm;69939;52.402;6.608;2023-08-06T08:08:38;59.93;36.87;73.65;;
80580;Laerm;69939;52.402;6.608;2023-08-06T08:11:07;58.79;34.30;73.73;;
80580;Laerm;69939;52.402;6.608;2023-08-06T08:13:36;60.98;34.78;72.28;;
80580;Laerm;69939;52.402;6.608;2023-08-06T08:16:05;60.29;36.03;71.60;;
80580;Laerm;69939;52.402;6.608;2023-08-06T08:18:34;63.37;39.19;74.07;;
80580;Laerm;69939;52.402;6.608;2023-08-06T08:21:04;59.16;38.89;70.22;;
80580;Laerm;69939;52.402;6.608;2023-08-06T08:23:32;59.72;37.35;71.92;;
80580;Laerm;69939;52.402;6.608;2023-08-06T08:26:04;60.81;37.43;72.27;;
80580;Laerm;69939;52.402;6.608;2023-08-06T08:28:33;62.13;37.47;72.13;;
80580;Laerm;69939;52.402;6.608;2023-08-06T08:31:03;62.69;38.40;77.98;;
80580;Laerm;69939;52.402;6.608;2023-08-06T08:33:32;57.62;35.03;69.64;;
80580;Laerm;69939;52.402;6.608;2023-08-06T08:36:01;61.72;37.22;72.24;;
80580;Laerm;69939;52.402;6.608;2023-08-06T08:38:33;63.28;39.14;74.96;;
80580;Laerm;69939;52.402;6.608;2023-08-06T08:41:06;60.86;35.49;71.85;;
80580;Laerm;69939;52.402;6.608;2023-08-06T08:43:36;61.27;39.04;72.36;;
80580;Laerm;69939;52.402;6.608;2023-08-06T08:46:07;62.46;38.59;71.04;;
80580;Laerm;69939;52.402;6.608;2023-08-06T08:48:38;62.75;38.17;73.66;;
80580;Laerm;69939;52.402;6.608;2023-08-06T08:51:08;60.23;40.18;70.97;;
80580;Laerm;69939;52.402;6.608;2023-08-06T08:53:39;58.80;36.89;71.44;;
80580;Laerm;69939;52.402;6.608;2023-08-06T08:56:12;61.00;41.20;72.74;;
80580;Laerm;69939;52.402;6.608;2023-08-06T08:58:42;60.87;38.15;75.68;;
80580;Laerm;69939;52.402;6.608;2023-08-06T09:01:11;61.91;36.29;70.97;;
80580;Laerm;69939;52.402;6.608;2023-08-06T09:03:44;63.07;36.92;73.49;;
80580;Laerm;69939;52.402;6.608;2023-08-06T09:06:13;62.33;43.08;71.70;;
80580;Laerm;69939;52.402;6.608;2023-08-06T09:08:51;62.71;41.37;73.69;;
80580;Laerm;69939;52.402;6.608;2023-08-06T09:11:32;62.00;39.54;71.93;;
80580;Laerm;69939;52.402;6.608;2023-08-06T09:14:06;58.78;37.74;69.72;;
80580;Laerm;69939;52.402;6.608;2023-08-06T09:16:35;59.99;38.14;70.46;;
80580;Laerm;69939;52.402;6.608;2023-08-06T09:19:08;62.22;39.54;73.89;;
80580;Laerm;69939;52.402;6.608;2023-08-06T09:21:38;62.09;37.47;73.97;;
80580;Laerm;69939;52.402;6.608;2023-08-06T09:24:08;63.71;39.42;75.84;;
80580;Laerm;69939;52.402;6.608;2023-08-06T09:26:44;62.79;39.70;70.82;;
80580;Laerm;69939;52.402;6.608;2023-08-06T09:29:13;61.63;42.74;73.48;;
80580;Laerm;69939;52.402;6.608;2023-08-06T09:31:44;59.13;36.48;71.57;;
80580;Laerm;69939;52.402;6.608;2023-08-06T09:34:16;61.25;40.85;72.26;;
80580;Laerm;69939;52.402;6.608;2023-08-06T09:36:47;61.90;40.22;74.07;;
80580;Laerm;69939;52.402;6.608;2023-08-06T09:39:19;65.44;47.25;76.31;;
80580;Laerm;69939;52.402;6.608;2023-08-06T09:41:56;62.82;37.87;74.46;;
80580;Laerm;69939;52.402;6.608;2023-08-06T09:44:31;58.18;39.20;69.87;;
80580;Laerm;69939;52.402;6.608;2023-08-06T09:47:03;62.81;41.64;71.22;;
80580;Laerm;69939;52.402;6.608;2023-08-06T09:49:42;62.50;40.43;72.92;;
80580;Laerm;69939;52.402;6.608;2023-08-06T09:52:12;62.81;42.22;79.01;;
80580;Laerm;69939;52.402;6.608;2023-08-06T09:54:43;62.58;41.88;73.27;;
80580;Laerm;69939;52.402;6.608;2023-08-06T09:57:15;62.00;37.09;74.85;;
80580;Laerm;69939;52.402;6.608;2023-08-06T09:59:45;61.53;38.16;72.94;;
80580;Laerm;69939;52.402;6.608;2023-08-06T10:02:15;61.19;39.24;73.28;;
80580;Laerm;69939;52.402;6.608;2023-08-06T10:04:45;62.12;41.31;74.50;;
80580;Laerm;69939;52.402;6.608;2023-08-06T10:07:14;61.23;39.78;71.77;;
80580;Laerm;69939;52.402;6.608;2023-08-06T10:09:44;60.96;38.16;78.84;;
80580;Laerm;69939;52.402;6.608;2023-08-06T10:12:17;60.51;41.05;71.81;;
80580;Laerm;69939;52.402;6.608;2023-08-06T10:14:48;61.11;37.96;71.70;;
80580;Laerm;69939;52.402;6.608;2023-08-06T10:17:19;63.28;44.13;72.26;;
80580;Laerm;69939;52.402;6.608;2023-08-06T10:19:50;61.44;40.37;73.59;;
80580;Laerm;69939;52.402;6.608;2023-08-06T10:22:20;63.24;47.63;73.31;;
80580;Laerm;69939;52.402;6.608;2023-08-06T10:24:51;62.71;42.01;73.88;;
80580;Laerm;69939;52.402;6.608;2023-08-06T10:27:33;63.28;40.80;75.48;;
80580;Laerm;69939;52.402;6.608;2023-08-06T10:30:21;63.07;42.89;72.89;;
80580;Laerm;69939;52.402;6.608;2023-08-06T10:32:52;63.40;43.31;72.24;;
80580;Laerm;69939;52.402;6.608;2023-08-06T10:35:36;62.00;41.08;73.70;;
80580;Laerm;69939;52.402;6.608;2023-08-06T10:38:09;62.75;36.88;72.58;;
80580;Laerm;69939;52.402;6.608;2023-08-06T10:40:41;63.76;41.81;74.08;;
80580;Laerm;69939;52.402;6.608;2023-08-06T10:43:25;59.76;37.91;75.95;;
80580;Laerm;69939;52.402;6.608;2023-08-06T10:45:58;61.85;44.42;74.27;;
80580;Laerm;69939;52.402;6.608;2023-08-06T10:48:34;64.44;43.15;75.42;;
80580;Laerm;69939;52.402;6.608;2023-08-06T10:51:09;64.30;47.32;74.80;;
80580;Laerm;69939;52.402;6.608;2023-08-06T10:53:41;62.37;37.06;73.07;;
80580;Laerm;69939;52.402;6.608;2023-08-06T10:56:13;64.55;42.16;74.28;;
80580;Laerm;69939;52.402;6.608;2023-08-06T10:58:47;65.35;45.82;78.53;;
80580;Laerm;69939;52.402;6.608;2023-08-06T11:01:19;64.20;42.14;82.23;;
80580;Laerm;69939;52.402;6.608;2023-08-06T11:03:48;61.22;40.27;73.43;;
80580;Laerm;69939;52.402;6.608;2023-08-06T11:06:20;61.77;40.91;72.04;;
80580;Laerm;69939;52.402;6.608;2023-08-06T11:08:52;62.76;41.68;72.61;;
80580;Laerm;69939;52.402;6.608;2023-08-06T11:11:23;61.05;40.54;73.38;;
80580;Laerm;69939;52.402;6.608;2023-08-06T11:13:58;61.23;42.59;72.20;;
80580;Laerm;69939;52.402;6.608;2023-08-06T11:16:31;63.54;43.59;72.55;;
80580;Laerm;69939;52.402;6.608;2023-08-06T11:19:04;63.70;46.65;73.24;;
80580;Laerm;69939;52.402;6.608;2023-08-06T11:21:36;62.48;38.84;72.81;;
80580;Laerm;69939;52.402;6.608;2023-08-06T11:24:05;63.86;39.38;74.76;;
80580;Laerm;69939;52.402;6.608;2023-08-06T11:26:36;63.30;45.51;73.35;;
80580;Laerm;69939;52.402;6.608;2023-08-06T11:29:08;63.40;41.39;75.29;;
80580;Laerm;69939;52.402;6.608;2023-08-06T11:31:37;63.38;40.88;71.64;;
80580;Laerm;69939;52.402;6.608;2023-08-06T11:34:07;63.61;38.89;75.29;;
80580;Laerm;69939;52.402;6.608;2023-08-06T11:36:41;63.44;46.04;71.73;;
80580;Laerm;69939;52.402;6.608;2023-08-06T11:39:10;62.33;41.84;72.42;;
80580;Laerm;69939;52.402;6.608;2023-08-06T11:41:39;63.17;40.16;75.17;;
80580;Laerm;69939;52.402;6.608;2023-08-06T11:44:13;62.34;43.29;71.30;;
80580;Laerm;69939;52.402;6.608;2023-08-06T11:46:52;63.06;41.36;73.39;;
80580;Laerm;69939;52.402;6.608;2023-08-06T11:49:38;64.69;47.32;72.22;;
80580;Laerm;69939;52.402;6.608;2023-08-06T11:52:13;61.14;42.08;70.80;;
80580;Laerm;69939;52.402;6.608;2023-08-06T11:54:45;64.61;47.07;72.70;;
80580;Laerm;69939;52.402;6.608;2023-08-06T11:57:15;65.02;44.28;74.10;;
80580;Laerm;69939;52.402;6.608;2023-08-06T11:59:47;61.80;38.11;74.53;;
80580;Laerm;69939;52.402;6.608;2023-08-06T12:02:21;63.28;44.94;72.53;;
80580;Laerm;69939;52.402;6.608;2023-08-06T12:05:03;61.93;37.25;72.63;;
80580;Laerm;69939;52.402;6.608;2023-08-06T12:07:39;63.41;42.18;74.55;;
80580;Laerm;69939;52.402;6.608;2023-08-06T12:10:08;62.54;43.13;74.59;;
80580;Laerm;69939;52.402;6.608;2023-08-06T12:12:38;64.21;45.11;74.61;;
80580;Laerm;69939;52.402;6.608;2023-08-06T12:15:11;63.33;42.63;74.18;;
80580;Laerm;69939;52.402;6.608;2023-08-06T12:17:40;61.96;43.18;76.20;;
80580;Laerm;69939;52.402;6.608;2023-08-06T12:20:10;64.02;43.10;75.64;;
80580;Laerm;69939;52.402;6.608;2023-08-06T12:22:39;64.05;41.04;72.79;;
80580;Laerm;69939;52.402;6.608;2023-08-06T12:25:11;61.89;43.26;73.48;;
80580;Laerm;69939;52.402;6.608;2023-08-06T12:27:41;62.79;40.98;71.09;;
80580;Laerm;69939;52.402;6.608;2023-08-06T12:30:14;63.93;38.67;73.15;;
80580;Laerm;69939;52.402;6.608;2023-08-06T12:32:43;61.14;39.19;72.65;;
80580;Laerm;69939;52.402;6.608;2023-08-06T12:35:12;62.63;43.09;72.53;;
80580;Laerm;69939;52.402;6.608;2023-08-06T12:37:42;63.91;40.54;73.31;;
80580;Laerm;69939;52.402;6.608;2023-08-06T12:40:11;64.24;42.94;74.51;;
80580;Laerm;69939;52.402;6.608;2023-08-06T12:42:41;63.00;39.72;71.27;;
80580;Laerm;69939;52.402;6.608;2023-08-06T12:45:12;63.12;44.73;72.63;;
80580;Laerm;69939;52.402;6.608;2023-08-06T12:47:42;62.94;39.84;74.10;;
80580;Laerm;69939;52.402;6.608;2023-08-06T12:50:12;63.64;46.37;74.45;;
80580;Laerm;69939;52.402;6.608;2023-08-06T12:52:42;61.87;42.15;77.13;;
80580;Laerm;69939;52.402;6.608;2023-08-06T12:55:12;63.57;39.31;72.54;;
80580;Laerm;69939;52.402;6.608;2023-08-06T12:57:41;64.87;39.76;81.59;;
80580;Laerm;69939;52.402;6.608;2023-08-06T13:00:13;64.09;40.51;74.87;;
80580;Laerm;69939;52.402;6.608;2023-08-06T13:02:43;61.38;43.89;71.28;;
80580;Laerm;69939;52.402;6.608;2023-08-06T13:05:12;63.02;38.64;77.10;;
80580;Laerm;69939;52.402;6.608;2023-08-06T13:07:41;63.83;41.79;73.33;;
80580;Laerm;69939;52.402;6.608;2023-08-06T13:10:11;64.83;41.65;74.49;;
80580;Laerm;69939;52.402;6.608;2023-08-06T13:12:40;62.42;44.21;73.82;;
80580;Laerm;69939;52.402;6.608;2023-08-06T13:15:09;62.06;39.95;72.27;;
80580;Laerm;69939;52.402;6.608;2023-08-06T13:17:42;62.61;42.02;74.86;;
80580;Laerm;69939;52.402;6.608;2023-08-06T13:20:12;60.52;39.14;71.89;;
80580;Laerm;69939;52.402;6.608;2023-08-06T13:22:41;61.59;39.23;70.60;;
80580;Laerm;69939;52.402;6.608;2023-08-06T13:25:12;62.52;39.54;71.42;;
80580;Laerm;69939;52.402;6.608;2023-08-06T13:27:42;61.89;40.27;71.71;;
80580;Laerm;69939;52.402;6.608;2023-08-06T13:30:12;63.85;45.55;71.28;;
80580;Laerm;69939;52.402;6.608;2023-08-06T13:32:43;60.71;40.38;72.70;;
80580;Laerm;69939;52.402;6.608;2023-08-06T13:35:14;61.97;40.18;74.97;;
80580;Laerm;69939;52.402;6.608;2023-08-06T13:37:43;61.56;42.53;70.44;;
80580;Laerm;69939;52.402;6.608;2023-08-06T13:40:13;60.55;38.14;69.26;;
80580;Laerm;69939;52.402;6.608;2023-08-06T13:42:42;62.23;40.15;76.56;;
80580;Laerm;69939;52.402;6.608;2023-08-06T13:45:12;60.39;41.77;72.56;;
80580;Laerm;69939;52.402;6.608;2023-08-06T13:47:44;62.24;44.08;71.56;;
80580;Laerm;69939;52.402;6.608;2023-08-06T13:50:15;61.74;42.42;70.37;;
80580;Laerm;69939;52.402;6.608;2023-08-06T13:52:50;61.80;44.38;73.18;;
80580;Laerm;69939;52.402;6.608;2023-08-06T13:55:21;61.21;41.04;71.17;;
80580;Laerm;69939;52.402;6.608;2023-08-06T13:57:53;63.65;43.89;77.45;;
80580;Laerm;69939;52.402;6.608;2023-08-06T14:00:22;68.21;46.78;86.98;;
80580;Laerm;69939;52.402;6.608;2023-08-06T14:02:54;75.05;62.72;92.01;;
80580;Laerm;69939;52.402;6.608;2023-08-06T14:05:24;67.70;57.63;81.71;;